createdAt,value
2019-03-25T00:02:18.618Z,0.19
2019-03-25T00:04:49.252Z,0.26
2019-03-25T00:07:19.219Z,0.28
2019-03-25T00:09:49.636Z,0.22
2019-03-25T00:12:19.605Z,0.13
2019-03-25T00:14:50.123Z,-0.01
2019-03-25T00:17:20.878Z,0.00
2019-03-25T00:19:51.242Z,-0.07
2019-03-25T00:22:21.872Z,-0.14
2019-03-25T00:24:52.745Z,-0.18
2019-03-25T00:27:23.604Z,-0.22
2019-03-25T00:29:54.235Z,-0.32
2019-03-25T00:32:24.312Z,-0.30
2019-03-25T00:34:54.840Z,-0.30
2019-03-25T00:37:24.788Z,-0.33
2019-03-25T00:39:55.308Z,-0.36
2019-03-25T00:42:26.079Z,-0.46
2019-03-25T00:44:56.728Z,-0.59
2019-03-25T00:47:27.566Z,-0.55
2019-03-25T00:49:58.222Z,-0.62
2019-03-25T00:52:28.991Z,-0.59
2019-03-25T00:54:58.948Z,-0.53
2019-03-25T00:57:29.460Z,-0.52
2019-03-25T01:00:00.379Z,-0.48
2019-03-25T01:02:31.272Z,-0.46
2019-03-25T01:05:02.046Z,-0.50
2019-03-25T01:07:32.694Z,-0.55
2019-03-25T01:10:04.679Z,-0.56
2019-03-25T01:12:35.533Z,-0.59
2019-03-25T01:15:07.413Z,-0.62
2019-03-25T01:17:38.164Z,-0.67
2019-03-25T01:20:09.161Z,-0.78
2019-03-25T01:22:40.186Z,-0.74
2019-03-25T01:25:10.939Z,-0.80
2019-03-25T01:27:41.589Z,-0.84
2019-03-25T01:30:12.329Z,-0.78
2019-03-25T01:32:43.078Z,-0.83
2019-03-25T01:35:13.849Z,-0.92
2019-03-25T01:37:44.503Z,-0.86
2019-03-25T01:40:15.361Z,-0.84
2019-03-25T01:42:46.095Z,-0.83
2019-03-25T01:45:16.868Z,-0.90
2019-03-25T01:47:47.604Z,-0.94
2019-03-25T01:50:18.479Z,-0.90
2019-03-25T01:52:49.110Z,-0.85
2019-03-25T01:55:19.887Z,-0.81
2019-03-25T01:57:50.533Z,-0.82
2019-03-25T02:00:21.388Z,-0.81
2019-03-25T02:02:52.142Z,-0.78
2019-03-25T02:05:22.899Z,-0.76
2019-03-25T02:07:53.657Z,-0.72
2019-03-25T02:10:24.511Z,-0.70
2019-03-25T02:12:55.262Z,-0.76
2019-03-25T02:15:25.916Z,-0.78
2019-03-25T02:17:56.768Z,-0.72
2019-03-25T02:20:27.404Z,-0.70
2019-03-25T02:22:58.386Z,-0.72
2019-03-25T02:25:29.217Z,-0.71
2019-03-25T02:28:00.088Z,-0.71
2019-03-25T02:30:30.727Z,-0.79
2019-03-25T02:33:00.690Z,-0.90
2019-03-25T02:35:31.212Z,-0.94
2019-03-25T02:38:01.987Z,-0.94
2019-03-25T02:40:32.847Z,-0.94
2019-03-25T02:43:03.698Z,-0.94
2019-03-25T02:45:34.549Z,-0.85
2019-03-25T02:48:06.426Z,-0.95
2019-03-25T02:50:37.163Z,-0.98
2019-03-25T02:53:08.042Z,-0.95
2019-03-25T02:55:41.774Z,-0.91
2019-03-25T02:58:11.287Z,-1.02
2019-03-25T03:00:42.138Z,-0.99
2019-03-25T03:03:12.897Z,-0.98
2019-03-25T03:05:43.527Z,-0.93
2019-03-25T03:08:14.401Z,-0.92
2019-03-25T03:10:45.279Z,-1.04
2019-03-25T03:13:16.132Z,-1.09
2019-03-25T03:15:46.768Z,-1.12
2019-03-25T03:18:16.614Z,-0.95
2019-03-25T03:20:47.028Z,-1.03
2019-03-25T03:23:17.703Z,-1.09
2019-03-25T03:25:56.977Z,-1.12
2019-03-25T03:28:21.048Z,-1.07
2019-03-25T03:30:51.681Z,-1.07
2019-03-25T03:33:22.434Z,-1.08
2019-03-25T03:35:53.309Z,-1.15
2019-03-25T03:38:24.065Z,-1.15
2019-03-25T03:40:54.715Z,-1.20
2019-03-25T03:43:25.453Z,-1.14
2019-03-25T03:45:56.323Z,-1.13
2019-03-25T03:48:27.980Z,-1.02
2019-03-25T03:50:58.657Z,-0.96
2019-03-25T03:53:29.285Z,-0.74
2019-03-25T03:56:11.947Z,-0.48
2019-03-25T03:58:31.117Z,-0.36
2019-03-25T04:01:02.059Z,-0.32
2019-03-25T04:03:32.935Z,-0.24
2019-03-25T04:06:03.564Z,-0.11
2019-03-25T04:08:34.294Z,0.05
2019-03-25T04:11:05.087Z,0.18
2019-03-25T04:13:35.943Z,0.34
2019-03-25T04:16:06.579Z,0.55
2019-03-25T04:18:37.349Z,0.70
2019-03-25T04:21:07.888Z,0.82
2019-03-25T04:23:38.752Z,0.89
2019-03-25T04:26:09.506Z,0.99
2019-03-25T04:28:40.263Z,1.22
2019-03-25T04:31:11.016Z,1.36
2019-03-25T04:33:41.750Z,1.56
2019-03-25T04:36:12.504Z,1.78
2019-03-25T04:38:43.275Z,1.95
2019-03-25T04:41:13.933Z,2.13
2019-03-25T04:43:44.783Z,2.33
2019-03-25T04:46:15.636Z,2.50
2019-03-25T04:48:47.090Z,2.52
2019-03-25T04:51:17.863Z,2.64
2019-03-25T04:53:48.617Z,2.83
2019-03-25T04:56:19.350Z,3.07
2019-03-25T04:58:50.107Z,2.95
2019-03-25T05:01:20.759Z,3.25
2019-03-25T05:03:51.409Z,3.41
2019-03-25T05:06:21.487Z,3.27
2019-03-25T05:08:52.014Z,3.45
2019-03-25T05:11:30.635Z,3.52
2019-03-25T05:13:54.850Z,3.82
2019-03-25T05:16:25.706Z,4.00
2019-03-25T05:18:56.339Z,4.14
2019-03-25T05:21:26.310Z,4.16
2019-03-25T05:23:56.829Z,4.08
2019-03-25T05:26:27.480Z,4.16
2019-03-25T05:28:57.444Z,4.48
2019-03-25T05:31:27.978Z,4.54
2019-03-25T05:33:58.626Z,4.58
2019-03-25T05:36:28.691Z,4.52
2019-03-25T05:38:59.221Z,4.77
2019-03-25T05:41:29.854Z,5.02
2019-03-25T05:44:00.729Z,5.11
2019-03-25T05:46:31.359Z,4.98
2019-03-25T05:49:03.152Z,4.93
2019-03-25T05:51:33.787Z,4.93
2019-03-25T05:54:04.561Z,5.15
2019-03-25T05:56:35.298Z,5.53
2019-03-25T05:59:06.177Z,5.55
2019-03-25T06:01:36.925Z,5.47
2019-03-25T06:04:07.557Z,5.49
2019-03-25T06:06:38.312Z,5.55
2019-03-25T06:09:09.184Z,5.82
2019-03-25T06:11:39.938Z,5.83
2019-03-25T06:14:10.469Z,6.07
2019-03-25T06:16:41.344Z,6.36
2019-03-25T06:19:12.099Z,6.48
2019-03-25T06:21:42.850Z,6.63
2019-03-25T06:24:13.383Z,6.63
2019-03-25T06:26:44.257Z,6.79
2019-03-25T06:29:15.067Z,6.96
2019-03-25T06:31:45.747Z,6.91
2019-03-25T06:34:15.825Z,7.14
2019-03-25T06:36:46.335Z,7.44
2019-03-25T06:39:17.006Z,7.62
2019-03-25T06:41:47.739Z,7.86
2019-03-25T06:44:18.611Z,8.12
2019-03-25T06:46:49.491Z,8.25
2019-03-25T06:49:21.434Z,8.41
2019-03-25T06:51:52.211Z,8.51
2019-03-25T06:54:22.856Z,8.67
2019-03-25T06:56:53.712Z,8.84
2019-03-25T06:59:24.879Z,8.72
2019-03-25T07:01:55.304Z,9.03
2019-03-25T07:04:26.573Z,9.04
2019-03-25T07:06:57.497Z,9.23
2019-03-25T07:09:29.858Z,9.38
2019-03-25T07:12:00.690Z,9.69
2019-03-25T07:14:31.139Z,9.83
2019-03-25T07:17:03.930Z,9.99
2019-03-25T07:19:34.388Z,10.00
2019-03-25T07:22:08.168Z,10.08
2019-03-25T07:24:40.294Z,10.20
2019-03-25T07:27:12.573Z,10.63
2019-03-25T07:29:43.420Z,10.81
2019-03-25T07:32:14.396Z,10.91
2019-03-25T07:34:45.065Z,11.03
2019-03-25T07:37:17.316Z,10.92
2019-03-25T07:39:48.582Z,10.59
2019-03-25T07:42:19.232Z,10.84
2019-03-25T07:44:50.717Z,11.00
2019-03-25T07:47:21.405Z,11.01
2019-03-25T07:49:52.826Z,11.18
2019-03-25T07:52:23.183Z,11.30
2019-03-25T07:54:54.064Z,11.30
2019-03-25T07:57:23.896Z,11.57
2019-03-25T07:59:54.425Z,11.51
2019-03-25T08:02:25.178Z,11.64
2019-03-25T08:04:56.791Z,11.93
2019-03-25T08:07:27.085Z,12.03
2019-03-25T08:09:58.169Z,12.35
2019-03-25T08:12:28.721Z,12.58
2019-03-25T08:14:59.473Z,13.19
2019-03-25T08:17:31.428Z,13.18
2019-03-25T08:20:02.399Z,13.09
2019-03-25T08:22:34.379Z,13.02
2019-03-25T08:25:07.035Z,13.06
2019-03-25T08:27:37.710Z,12.92
2019-03-25T08:30:08.477Z,12.71
2019-03-25T08:32:39.115Z,12.28
2019-03-25T08:35:09.867Z,12.68
2019-03-25T08:37:40.743Z,13.48
2019-03-25T08:40:11.495Z,13.71
2019-03-25T08:42:42.129Z,13.62
2019-03-25T08:45:13.719Z,13.01
2019-03-25T08:47:44.045Z,12.73
2019-03-25T08:50:15.639Z,12.16
2019-03-25T08:52:46.389Z,12.58
2019-03-25T08:55:17.143Z,12.84
2019-03-25T08:57:48.113Z,12.66
2019-03-25T09:00:18.548Z,12.54
2019-03-25T09:02:49.303Z,13.07
2019-03-25T09:05:20.376Z,13.63
2019-03-25T09:07:50.960Z,14.19
2019-03-25T09:10:21.647Z,14.46
2019-03-25T09:12:52.300Z,14.44
2019-03-25T09:15:23.172Z,14.58
2019-03-25T09:17:54.030Z,14.26
2019-03-25T09:20:24.869Z,14.36
2019-03-25T09:22:55.417Z,14.25
2019-03-25T09:25:26.292Z,14.51
2019-03-25T09:27:57.966Z,14.51
2019-03-25T09:30:46.437Z,14.63
2019-03-25T09:33:17.274Z,14.30
2019-03-25T09:35:48.061Z,14.49
2019-03-25T09:38:18.884Z,14.94
2019-03-25T09:40:49.735Z,14.85
2019-03-25T09:43:20.593Z,15.56
2019-03-25T09:45:51.348Z,15.70
2019-03-25T09:48:22.084Z,15.67
2019-03-25T09:50:53.879Z,15.10
2019-03-25T09:53:24.833Z,14.97
2019-03-25T09:55:55.280Z,14.60
2019-03-25T09:58:35.589Z,14.61
2019-03-25T10:00:58.119Z,15.12
2019-03-25T10:03:28.873Z,14.68
2019-03-25T10:05:59.610Z,14.92
2019-03-25T10:08:30.378Z,15.06
2019-03-25T10:11:01.032Z,14.60
2019-03-25T10:13:31.886Z,14.62
2019-03-25T10:16:03.336Z,15.10
2019-03-25T10:18:34.011Z,15.95
2019-03-25T10:21:04.763Z,15.87
2019-03-25T10:23:35.524Z,15.60
2019-03-25T10:26:06.152Z,15.83
2019-03-25T10:28:48.076Z,16.42
2019-03-25T10:31:09.503Z,16.27
2019-03-25T10:33:40.151Z,15.61
2019-03-25T10:36:13.996Z,15.10
2019-03-25T10:38:46.004Z,14.57
2019-03-25T10:41:17.133Z,14.76
2019-03-25T10:43:50.787Z,14.86
2019-03-25T10:46:21.866Z,14.84
2019-03-25T10:49:02.709Z,15.08
2019-03-25T10:51:37.999Z,15.97
2019-03-25T10:54:09.110Z,15.52
2019-03-25T10:56:48.834Z,15.19
2019-03-25T10:59:11.950Z,14.71
2019-03-25T11:01:42.804Z,14.89
2019-03-25T11:04:13.437Z,14.73
2019-03-25T11:06:44.111Z,15.23
2019-03-25T11:09:14.980Z,14.27
2019-03-25T11:11:45.803Z,14.35
2019-03-25T11:14:16.578Z,14.45
2019-03-25T11:16:47.227Z,13.91
2019-03-25T11:19:18.082Z,14.15
2019-03-25T11:21:47.829Z,14.17
2019-03-25T11:24:18.265Z,14.08
2019-03-25T11:26:48.810Z,14.22
2019-03-25T11:29:19.547Z,15.30
2019-03-25T11:31:50.201Z,15.25
2019-03-25T11:34:21.174Z,14.95
2019-03-25T11:36:51.723Z,15.87
2019-03-25T11:39:22.577Z,15.03
2019-03-25T11:41:53.650Z,15.18
2019-03-25T11:44:24.273Z,14.96
2019-03-25T11:46:55.031Z,14.73
2019-03-25T11:49:25.799Z,14.87
2019-03-25T11:51:57.368Z,15.40
2019-03-25T11:54:28.005Z,15.31
2019-03-25T11:56:58.776Z,15.01
2019-03-25T11:59:29.515Z,15.05
2019-03-25T12:02:00.389Z,14.84
2019-03-25T12:04:31.242Z,14.54
2019-03-25T12:07:01.896Z,15.18
2019-03-25T12:09:32.683Z,15.20
2019-03-25T12:12:02.395Z,15.52
2019-03-25T12:14:32.826Z,15.52
2019-03-25T12:17:03.566Z,16.00
2019-03-25T12:19:34.318Z,15.45
2019-03-25T12:22:04.972Z,15.17
2019-03-25T12:24:35.744Z,15.27
2019-03-25T12:27:06.394Z,15.65
2019-03-25T12:29:37.251Z,16.26
2019-03-25T12:32:08.004Z,15.96
2019-03-25T12:34:38.639Z,15.83
2019-03-25T12:37:09.389Z,16.77
2019-03-25T12:39:40.265Z,16.13
2019-03-25T12:42:11.021Z,15.60
2019-03-25T12:44:41.673Z,15.19
2019-03-25T12:47:12.304Z,15.89
2019-03-25T12:49:43.175Z,15.17
2019-03-25T12:52:14.836Z,15.80
2019-03-25T12:54:45.485Z,16.00
2019-03-25T12:57:16.140Z,15.88
2019-03-25T12:59:46.688Z,15.88
2019-03-25T13:02:17.441Z,15.59
2019-03-25T13:04:48.314Z,15.40
2019-03-25T13:07:19.068Z,15.80
2019-03-25T13:09:49.720Z,15.54
2019-03-25T13:12:20.579Z,15.43
2019-03-25T13:14:52.839Z,15.35
2019-03-25T13:17:23.513Z,15.46
2019-03-25T13:19:56.114Z,15.43
2019-03-25T13:22:27.170Z,15.10
2019-03-25T13:24:57.825Z,14.56
2019-03-25T13:27:28.456Z,14.40
2019-03-25T13:29:59.128Z,14.59
2019-03-25T13:32:29.980Z,14.43
2019-03-25T13:35:00.842Z,14.29
2019-03-25T13:37:31.596Z,13.97
2019-03-25T13:40:02.365Z,14.05
2019-03-25T13:42:33.184Z,14.00
2019-03-25T13:45:04.781Z,14.10
2019-03-25T13:47:35.323Z,14.45
2019-03-25T13:50:07.206Z,14.53
2019-03-25T13:52:38.978Z,14.27
2019-03-25T13:55:09.835Z,13.96
2019-03-25T13:57:40.572Z,14.02
2019-03-25T14:00:11.241Z,13.31
2019-03-25T14:02:44.348Z,13.10
2019-03-25T14:05:15.001Z,12.75
2019-03-25T14:07:45.856Z,12.35
2019-03-25T14:10:16.790Z,12.45
2019-03-25T14:12:47.567Z,12.38
2019-03-25T14:15:18.423Z,12.32
2019-03-25T14:17:49.293Z,12.11
2019-03-25T14:20:20.034Z,11.99
2019-03-25T14:22:50.568Z,11.81
2019-03-25T14:25:21.440Z,11.73
2019-03-25T14:27:52.987Z,11.60
2019-03-25T14:30:23.865Z,11.67
2019-03-25T14:32:56.512Z,11.67
2019-03-25T14:35:28.155Z,11.69
2019-03-25T14:37:59.574Z,11.82
2019-03-25T14:40:30.197Z,11.76
2019-03-25T14:43:01.010Z,11.45
2019-03-25T14:45:31.670Z,11.20
2019-03-25T14:48:02.522Z,11.06
2019-03-25T14:50:33.272Z,10.98
2019-03-25T14:53:04.941Z,10.86
2019-03-25T14:55:35.586Z,10.87
2019-03-25T14:58:06.336Z,10.62
2019-03-25T15:00:37.209Z,10.61
2019-03-25T15:03:07.967Z,10.56
2019-03-25T15:05:38.725Z,10.43
2019-03-25T15:08:09.351Z,10.32
2019-03-25T15:10:40.109Z,10.20
2019-03-25T15:13:10.875Z,10.31
2019-03-25T15:15:41.632Z,10.19
2019-03-25T15:18:15.737Z,10.13
2019-03-25T15:20:44.660Z,10.06
2019-03-25T15:23:14.731Z,9.86
2019-03-25T15:25:45.265Z,9.75
2019-03-25T15:28:15.890Z,9.70
2019-03-25T15:30:45.972Z,9.68
2019-03-25T15:33:16.375Z,9.68
2019-03-25T15:35:47.263Z,9.74
2019-03-25T15:38:18.208Z,9.69
2019-03-25T15:40:49.487Z,9.77
2019-03-25T15:43:19.920Z,9.82
2019-03-25T15:45:52.085Z,9.74
2019-03-25T15:48:22.963Z,9.80
2019-03-25T15:50:53.717Z,9.74
2019-03-25T15:53:28.833Z,9.65
2019-03-25T15:55:59.740Z,9.61
2019-03-25T15:58:30.475Z,9.61
2019-03-25T16:01:01.239Z,9.61
2019-03-25T16:03:34.133Z,9.57
2019-03-25T16:06:04.771Z,9.53
2019-03-25T16:08:35.543Z,9.52
2019-03-25T16:11:06.291Z,9.47
2019-03-25T16:13:41.530Z,9.45
2019-03-25T16:16:12.288Z,9.42
2019-03-25T16:18:43.160Z,9.39
2019-03-25T16:21:13.790Z,9.38
2019-03-25T16:23:43.871Z,9.44
2019-03-25T16:26:14.260Z,9.42
2019-03-25T16:28:45.151Z,9.38
2019-03-25T16:31:15.679Z,9.46
2019-03-25T16:33:46.555Z,9.48
2019-03-25T16:36:20.172Z,9.46
2019-03-25T16:38:50.927Z,9.47
2019-03-25T16:41:21.577Z,9.64
2019-03-25T16:43:52.319Z,9.76
2019-03-25T16:46:23.187Z,9.83
2019-03-25T16:48:55.178Z,9.87
2019-03-25T16:51:25.924Z,9.81
2019-03-25T16:53:57.380Z,9.69
2019-03-25T16:56:28.146Z,9.49
2019-03-25T16:58:58.678Z,9.45
2019-03-25T17:01:29.431Z,9.38
2019-03-25T17:04:00.305Z,9.46
2019-03-25T17:06:31.057Z,9.54
2019-03-25T17:09:01.716Z,9.56
2019-03-25T17:11:32.567Z,9.58
2019-03-25T17:14:03.344Z,9.49
2019-03-25T17:16:34.079Z,9.34
2019-03-25T17:19:04.726Z,9.22
2019-03-25T17:21:35.568Z,9.06
2019-03-25T17:24:09.032Z,8.89
2019-03-25T17:26:42.551Z,8.73
2019-03-25T17:29:12.142Z,8.59
2019-03-25T17:31:42.793Z,8.42
2019-03-25T17:34:13.565Z,8.29
2019-03-25T17:36:45.626Z,8.16
2019-03-25T17:39:16.384Z,8.08
2019-03-25T17:41:47.249Z,8.04
2019-03-25T17:44:17.991Z,8.00
2019-03-25T17:46:48.644Z,7.95
2019-03-25T17:49:19.500Z,7.89
2019-03-25T17:51:50.253Z,7.89
2019-03-25T17:54:22.029Z,7.86
2019-03-25T17:56:52.784Z,7.75
2019-03-25T17:59:23.436Z,7.70
2019-03-25T18:01:54.178Z,7.67
2019-03-25T18:04:25.847Z,7.68
2019-03-25T18:06:56.416Z,7.62
2019-03-25T18:09:27.168Z,7.57
2019-03-25T18:11:57.907Z,7.49
2019-03-25T18:14:28.677Z,7.52
2019-03-25T18:16:59.335Z,7.47
2019-03-25T18:19:30.286Z,7.43
2019-03-25T18:22:01.142Z,7.38
2019-03-25T18:24:31.895Z,7.36
2019-03-25T18:27:02.750Z,7.39
2019-03-25T18:29:33.894Z,7.36
2019-03-25T18:32:04.666Z,7.37
2019-03-25T18:34:35.317Z,7.40
2019-03-25T18:37:07.285Z,7.43
2019-03-25T18:39:38.162Z,7.40
2019-03-25T18:42:08.914Z,7.42
2019-03-25T18:44:39.667Z,7.38
2019-03-25T18:47:13.076Z,7.44
2019-03-25T18:49:43.730Z,7.36
2019-03-25T18:52:17.859Z,7.28
2019-03-25T18:55:02.522Z,7.28
2019-03-25T18:57:33.787Z,7.31
2019-03-25T19:00:09.385Z,7.26
2019-03-25T19:02:39.796Z,7.27
2019-03-25T19:05:10.551Z,7.28
2019-03-25T19:07:41.227Z,7.31
2019-03-25T19:10:17.866Z,7.34
2019-03-25T19:12:48.740Z,7.29
2019-03-25T19:15:20.115Z,7.35
2019-03-25T19:17:50.674Z,7.38
2019-03-25T19:20:21.418Z,7.34
2019-03-25T19:22:53.779Z,7.20
2019-03-25T19:25:23.549Z,7.15
2019-03-25T19:27:54.596Z,7.18
2019-03-25T19:30:25.151Z,7.12
2019-03-25T19:32:56.521Z,7.15
2019-03-25T19:35:30.221Z,7.19
2019-03-25T19:38:00.785Z,7.12
2019-03-25T19:40:31.456Z,7.11
2019-03-25T19:43:03.798Z,7.13
2019-03-25T19:45:34.588Z,7.19
2019-03-25T19:48:05.244Z,7.19
2019-03-25T19:50:35.885Z,7.15
2019-03-25T19:53:18.282Z,7.17
2019-03-25T19:55:39.852Z,7.10
2019-03-25T19:58:10.621Z,7.09
2019-03-25T20:00:41.443Z,7.10
2019-03-25T20:03:12.134Z,7.04
2019-03-25T20:05:42.982Z,7.03
2019-03-25T20:08:13.847Z,7.04
2019-03-25T20:10:44.594Z,7.17
2019-03-25T20:13:16.780Z,7.10
2019-03-25T20:15:47.642Z,6.92
2019-03-25T20:18:18.541Z,7.03
2019-03-25T20:20:49.369Z,6.89
2019-03-25T20:23:20.123Z,6.94
2019-03-25T20:25:50.928Z,6.90
2019-03-25T20:28:21.675Z,6.86
2019-03-25T20:30:52.448Z,6.79
2019-03-25T20:33:23.953Z,6.95
2019-03-25T20:35:54.571Z,6.95
2019-03-25T20:38:25.344Z,6.94
2019-03-25T20:40:55.975Z,6.90
2019-03-25T20:43:26.774Z,6.80
2019-03-25T20:45:57.688Z,6.83
2019-03-25T20:48:28.344Z,6.84
2019-03-25T20:51:00.495Z,6.86
2019-03-25T20:53:31.226Z,6.91
2019-03-25T20:56:03.089Z,6.99
2019-03-25T20:58:34.420Z,6.93
2019-03-25T21:01:05.265Z,6.87
2019-03-25T21:03:36.031Z,6.89
2019-03-25T21:06:06.917Z,6.91
2019-03-25T21:08:38.272Z,6.91
2019-03-25T21:11:09.315Z,6.94
2019-03-25T21:13:39.917Z,6.95
2019-03-25T21:16:10.934Z,6.93
2019-03-25T21:18:42.617Z,7.00
2019-03-25T21:21:13.366Z,7.06
2019-03-25T21:23:44.122Z,7.10
2019-03-25T21:26:13.965Z,7.08
2019-03-25T21:28:44.368Z,7.14
2019-03-25T21:31:14.575Z,7.06
2019-03-25T21:33:45.089Z,7.13
2019-03-25T21:36:15.763Z,7.08
2019-03-25T21:38:46.776Z,7.07
2019-03-25T21:41:18.169Z,7.06
2019-03-25T21:43:48.647Z,7.07
2019-03-25T21:46:19.444Z,7.03
2019-03-25T21:48:50.455Z,7.04
2019-03-25T21:51:21.078Z,7.01
2019-03-25T21:53:53.286Z,7.06
2019-03-25T21:56:24.913Z,7.03
2019-03-25T21:58:55.891Z,7.05
2019-03-25T22:01:26.583Z,7.00
2019-03-25T22:03:57.294Z,6.98
2019-03-25T22:06:28.150Z,6.91
2019-03-25T22:08:58.905Z,6.92
2019-03-25T22:11:29.541Z,6.85
2019-03-25T22:13:59.617Z,6.84
2019-03-25T22:16:30.142Z,6.81
2019-03-25T22:19:00.777Z,6.78
2019-03-25T22:21:31.529Z,6.77
2019-03-25T22:24:02.405Z,6.72
2019-03-25T22:26:33.158Z,6.68
2019-03-25T22:29:03.790Z,6.64
2019-03-25T22:31:34.547Z,6.69
2019-03-25T22:34:05.419Z,6.71
2019-03-25T22:36:36.054Z,6.74
2019-03-25T22:39:06.222Z,6.66
2019-03-25T22:41:36.436Z,6.66
2019-03-25T22:44:07.214Z,6.59
2019-03-25T22:46:37.741Z,6.54
2019-03-25T22:49:08.613Z,6.47
2019-03-25T22:51:39.366Z,6.41
2019-03-25T22:54:10.001Z,6.37
2019-03-25T22:56:41.574Z,6.39
2019-03-25T22:59:12.231Z,6.36
2019-03-25T23:01:42.194Z,6.41
2019-03-25T23:04:12.732Z,6.38
2019-03-25T23:06:43.481Z,6.35
2019-03-25T23:09:14.335Z,6.45
2019-03-25T23:11:45.074Z,6.44
2019-03-25T23:14:15.846Z,6.36
2019-03-25T23:16:46.497Z,6.47
2019-03-25T23:19:17.352Z,6.48
2019-03-25T23:21:48.209Z,6.40
2019-03-25T23:24:18.963Z,6.39
2019-03-25T23:26:49.614Z,6.29
2019-03-25T23:29:20.473Z,6.32
2019-03-25T23:31:51.229Z,6.32
2019-03-25T23:34:26.271Z,6.31
2019-03-25T23:36:56.907Z,6.34
2019-03-25T23:39:27.662Z,6.32
2019-03-25T23:41:58.419Z,6.26
2019-03-25T23:44:29.190Z,6.25
2019-03-25T23:46:59.821Z,6.27
2019-03-25T23:49:30.695Z,6.27
2019-03-25T23:52:01.738Z,6.24
2019-03-25T23:54:32.389Z,6.26
2019-03-25T23:57:04.286Z,6.26
2019-03-25T23:59:35.140Z,6.26
